Terminal Aerodrome Forecast
Issued by NWS Tuscon, AZ

Home | Current Version | Previous Version | Text Only | Print | Product List | Glossary On
Versions: 1 2 3 4 5 6 7 8 9 10 11 12 13
000
FTUS45 KTWC 201127
TAFDUG
TAF
KDUG 201127Z 2012/2112 09008KT P6SM SKC
     FM201600 18012G20KT P6SM BKN250
     FM201900 21025G35KT P6SM FEW060 BKN200
     FM210100 24023G33KT P6SM VCSH FEW030 BKN060
     FM210300 27020G30KT P6SM -SHRA BKN030 OVC060
     FM210700 30015G25KT P6SM SCT030 BKN080=

USA.gov is the U.S. government's official web portal to all federal, state and local government web resources and services.